Asotin, WA (99402)

6:13 AM PST on December 06, 2016 (GMT -0800)
Nick's Weather Station | | Change Station
Active Advisory: Winter Weather Advisory

Elev 1076 ft 46.37 °N, 117.04 °W | Updated 3 minutes ago

Light Snow
Light Snow Mist
31.1 °F
Feels Like 31 °F
N
0.0
Wind Variable Wind from North
Gusts 0.0 mph

Today
High -- | Low -- °F
--% Chance of Precip.
Yesterday
High -- | Low -- °F
Precip. -- in
Pressure 29.93 in
Visibility 2.5 miles
Clouds Mostly Cloudy 2600 ft
Mostly Cloudy 3900 ft
Overcast 5500 ft
Windchill 31 °F
Dew Point 26 °F
Humidity 81%
Rainfall 0.00 in
Snow Depth Not available.
7:17 AM 4:01 PM
Waxing Crescent, 42% visible
SPECI KLWS 061411Z AUTO 07005KT 2 1/2SM -SN BR BKN026 BKN039 OVC055 M02/M03 A2993 RMK AO2 P0000 T10171033
Pressure 29.93 in
Visibility 2.5 miles
Clouds Mostly Cloudy 2600 ft
Mostly Cloudy 3900 ft
Overcast 5500 ft
Windchill 31 °F
Dew Point 26 °F
Humidity 81%
Rainfall 0.00 in
Snow Depth Not available.
7:17 AM 4:01 PM
Waxing Crescent, 42% visible
SPECI KLWS 061411Z AUTO 07005KT 2 1/2SM -SN BR BKN026 BKN039 OVC055 M02/M03 A2993 RMK AO2 P0000 T10171033

10-Day Weather Forecast

Almanac

Astronomy

Dec. 06, 2016 Rise Set
Actual Time
Civil Twilight
Nautical Twilight
Astronomical Twilight
Moon
Length of Visible Light
Length of Day
Tomorrow will be .
, % of the Moon is Illuminated

Today's Extremes

State Highs State Lows

Community

WunderPhotos

Upload Photos

1,955,949 photos uploaded!

WunderBlog® & News

Nearby

Air Quality

  Air Quality AQ Index Pollutant
Not available.

Snow Depth

Station Depth Elevation

Earthquake Activity

City Distance Mag. Time & Date
Minimum magnitude displayed is 2.5.

Coastal Water Temperatures

Place Temperature

Stations

Nearby Weather Stations

Station Location Temp. Windchill Dew Point Humidity Wind Precip. Elev Updated Type
                   

Watches & Warnings

Winter Weather Advisory
Issued: 2:47 AM PST Dec. 6, 2016 – National Weather Service

... Winter Weather Advisory in effect until 1 PM PST this
afternoon...

The National Weather Service in Spokane has issued a Winter
Weather Advisory for snow... which is in effect until 1 PM PST
this afternoon.

* Locations... Moscow, Potlatch, Genesee, Pomeroy, Alpowa Summit,
Pullman, Colfax, La Crosse, and Uniontown.

* Snow accumulations... 1 to 3 inches.

* Timing... snow will increase this morning and linger into early
afternoon... then decrease late in the afternoon.

* Impacts... snow on roadways and decreased visibilities will
make for difficult travel conditions... use caution while
driving.

* Web page: for a detailed view of the hazard area visit
http://www.Wrh.NOAA.Gov/map/?Wfo=otx.

Precautionary/preparedness actions...

A Winter Weather Advisory for snow means that periods of snow
will cause primarily travel difficulties. Be prepared for snow
covered roads and limited visibilities... and use caution while
driving.